createdAt,value
2022-12-16T00:01:10.679Z,12.15
2022-12-16T00:02:12.199Z,12.20
2022-12-16T00:03:13.872Z,11.57
2022-12-16T00:04:17.544Z,11.95
2022-12-16T00:05:23.165Z,10.65
2022-12-16T00:06:29.714Z,10.52
2022-12-16T00:07:31.171Z,12.27
2022-12-16T00:08:34.656Z,11.88
2022-12-16T00:09:36.233Z,9.68
2022-12-16T00:10:53.100Z,12.70
2022-12-16T00:11:56.697Z,10.88
2022-12-16T00:12:58.088Z,12.45
2022-12-16T00:13:59.632Z,13.25
2022-12-16T00:15:01.456Z,13.10
2022-12-16T00:16:10.649Z,11.60
2022-12-16T00:17:12.364Z,11.07
2022-12-16T00:18:14.371Z,12.25
2022-12-16T00:19:15.715Z,9.90
2022-12-16T00:20:17.322Z,11.82
2022-12-16T00:21:19.414Z,10.05
2022-12-16T00:22:21.023Z,10.25
2022-12-16T00:23:22.981Z,12.00
2022-12-16T00:24:24.626Z,10.10
2022-12-16T00:25:26.152Z,10.13
2022-12-16T00:26:29.689Z,12.40
2022-12-16T00:27:31.398Z,10.55
2022-12-16T00:28:32.971Z,10.07
2022-12-16T00:29:34.572Z,12.20
2022-12-16T00:30:36.298Z,12.15
2022-12-16T00:31:37.933Z,10.65
2022-12-16T00:32:39.767Z,13.77
2022-12-16T00:33:41.783Z,13.13
2022-12-16T00:34:43.504Z,11.90
2022-12-16T00:35:46.144Z,9.75
2022-12-16T00:36:47.666Z,12.20
2022-12-16T00:37:49.587Z,12.45
2022-12-16T00:38:53.442Z,11.38
2022-12-16T00:39:55.770Z,10.15
2022-12-16T00:40:57.231Z,9.40
2022-12-16T00:41:59.008Z,10.70
2022-12-16T00:43:00.550Z,10.95
2022-12-16T00:44:02.469Z,11.05
2022-12-16T00:45:05.010Z,13.70
2022-12-16T00:46:06.504Z,11.60
2022-12-16T00:47:08.393Z,11.77
2022-12-16T00:48:10.012Z,11.57
2022-12-16T00:49:11.663Z,10.90
2022-12-16T00:50:13.565Z,10.65
2022-12-16T00:51:15.131Z,11.82
2022-12-16T00:52:16.628Z,10.73
2022-12-16T00:53:18.170Z,10.73
2022-12-16T00:54:19.701Z,10.35
2022-12-16T00:55:21.540Z,10.85
2022-12-16T00:56:23.032Z,11.32
2022-12-16T00:57:24.483Z,9.95
2022-12-16T00:58:26.073Z,9.50
2022-12-16T00:59:27.508Z,10.82
2022-12-16T01:00:28.921Z,10.25
2022-12-16T01:01:30.414Z,10.63
2022-12-16T01:02:32.382Z,10.05
2022-12-16T01:03:35.324Z,11.40
2022-12-16T01:04:37.448Z,12.52
2022-12-16T01:05:39.109Z,8.80
2022-12-16T01:06:40.568Z,10.25
2022-12-16T01:07:42.055Z,13.77
2022-12-16T01:08:50.639Z,10.00
2022-12-16T01:09:53.411Z,10.27
2022-12-16T01:10:57.506Z,11.15
2022-12-16T01:11:58.946Z,12.23
2022-12-16T01:13:00.414Z,11.85
2022-12-16T01:14:01.861Z,11.57
2022-12-16T01:15:05.012Z,10.25
2022-12-16T01:16:06.879Z,11.20
2022-12-16T01:17:08.300Z,11.38
2022-12-16T01:18:10.913Z,11.65
2022-12-16T01:19:12.342Z,12.38
2022-12-16T01:20:14.231Z,12.07
2022-12-16T01:21:16.079Z,11.85
2022-12-16T01:22:17.892Z,12.93
2022-12-16T01:23:19.401Z,11.50
2022-12-16T01:24:20.824Z,12.63
2022-12-16T01:25:22.184Z,12.15
2022-12-16T01:26:24.400Z,13.35
2022-12-16T01:27:26.564Z,10.90
2022-12-16T01:28:29.218Z,13.82
2022-12-16T01:29:30.678Z,11.45
2022-12-16T01:30:32.369Z,9.70
2022-12-16T01:31:33.951Z,12.85
2022-12-16T01:32:35.613Z,9.95
2022-12-16T01:33:37.102Z,10.13
2022-12-16T01:34:38.618Z,10.23
2022-12-16T01:35:56.344Z,11.38
2022-12-16T01:36:57.976Z,12.32
2022-12-16T01:37:59.415Z,11.03
2022-12-16T01:39:01.135Z,14.15
2022-12-16T01:40:02.591Z,10.88
2022-12-16T01:41:05.021Z,11.93
2022-12-16T01:42:16.361Z,12.05
2022-12-16T01:43:29.387Z,11.73
2022-12-16T01:44:31.216Z,12.17
2022-12-16T01:45:36.100Z,9.90
2022-12-16T01:46:38.627Z,12.63
2022-12-16T01:47:40.361Z,11.93
2022-12-16T01:48:52.658Z,10.87
2022-12-16T01:50:00.695Z,11.23
2022-12-16T01:51:08.300Z,12.70
2022-12-16T01:52:17.744Z,11.20
2022-12-16T01:53:19.816Z,13.32
2022-12-16T01:54:50.619Z,10.85
2022-12-16T01:55:55.781Z,10.95
2022-12-16T01:57:00.794Z,10.30
2022-12-16T01:58:14.988Z,10.38
2022-12-16T01:59:18.779Z,11.57
2022-12-16T02:00:20.358Z,10.80
2022-12-16T02:01:22.112Z,12.98
2022-12-16T02:02:24.243Z,10.52
2022-12-16T02:03:27.339Z,11.10
2022-12-16T02:04:28.805Z,10.20
2022-12-16T02:05:30.878Z,10.50
2022-12-16T02:06:33.183Z,11.20
2022-12-16T02:07:34.744Z,8.48
2022-12-16T02:08:36.461Z,10.75
2022-12-16T02:09:38.096Z,12.60
2022-12-16T02:10:42.329Z,10.82
2022-12-16T02:12:02.267Z,11.30
2022-12-16T02:13:33.027Z,11.52
2022-12-16T02:15:02.296Z,8.57
2022-12-16T02:16:26.247Z,10.32
2022-12-16T02:17:47.205Z,9.90
2022-12-16T02:18:51.885Z,10.73
2022-12-16T02:20:14.142Z,10.18
2022-12-16T02:21:42.547Z,10.82
2022-12-16T02:23:00.733Z,11.13
2022-12-16T02:24:05.041Z,12.40
2022-12-16T02:25:29.783Z,10.25
2022-12-16T02:26:49.970Z,11.95
2022-12-16T02:28:17.380Z,11.07
2022-12-16T02:29:37.638Z,11.77
2022-12-16T02:31:17.564Z,10.10
2022-12-16T02:32:29.966Z,10.63
2022-12-16T02:33:52.299Z,9.55
2022-12-16T02:35:04.211Z,10.48
2022-12-16T02:36:24.526Z,11.43
2022-12-16T02:38:04.745Z,10.90
2022-12-16T02:39:21.082Z,10.02
2022-12-16T02:40:37.561Z,9.15
2022-12-16T02:41:43.952Z,12.80
2022-12-16T02:42:50.998Z,10.77
2022-12-16T02:43:57.042Z,10.80
2022-12-16T02:45:03.061Z,9.90
2022-12-16T02:46:07.501Z,7.82
2022-12-16T02:47:10.208Z,8.23
2022-12-16T02:48:11.890Z,10.07
2022-12-16T02:49:13.293Z,8.50
2022-12-16T02:50:26.431Z,9.67
2022-12-16T02:51:28.184Z,10.17
2022-12-16T02:52:32.131Z,8.13
2022-12-16T02:53:37.337Z,10.35
2022-12-16T02:54:39.420Z,8.43
2022-12-16T02:55:56.442Z,9.32
2022-12-16T02:57:06.742Z,8.53
2022-12-16T02:58:28.388Z,11.10
2022-12-16T02:59:41.985Z,8.50
2022-12-16T03:00:53.747Z,9.50
2022-12-16T03:02:40.737Z,9.15
2022-12-16T03:04:12.282Z,9.50
2022-12-16T03:05:17.118Z,8.52
2022-12-16T03:06:21.135Z,10.02
2022-12-16T03:07:26.477Z,7.73
2022-12-16T03:08:35.311Z,9.55
2022-12-16T03:09:39.686Z,8.73
2022-12-16T03:10:46.258Z,8.75
2022-12-16T03:11:49.713Z,9.73
2022-12-16T03:12:52.282Z,10.93
2022-12-16T03:13:55.972Z,9.33
2022-12-16T03:14:57.501Z,8.35
2022-12-16T03:16:02.970Z,8.68
2022-12-16T03:17:05.856Z,10.33
2022-12-16T03:18:10.278Z,8.33
2022-12-16T03:19:12.832Z,8.82
2022-12-16T03:20:26.617Z,10.68
2022-12-16T03:21:34.332Z,9.73
2022-12-16T03:22:38.002Z,8.90
2022-12-16T03:23:54.303Z,10.13
2022-12-16T03:24:55.994Z,7.63
2022-12-16T03:26:04.812Z,10.80
2022-12-16T03:27:23.717Z,8.90
2022-12-16T03:28:36.440Z,7.80
2022-12-16T03:29:56.686Z,8.40
2022-12-16T03:31:17.707Z,9.57
2022-12-16T03:32:37.037Z,8.30
2022-12-16T03:33:45.630Z,11.57
2022-12-16T03:34:56.384Z,9.85
2022-12-16T03:36:02.352Z,8.70
2022-12-16T03:37:07.144Z,10.13
2022-12-16T03:38:12.184Z,8.90
2022-12-16T03:39:15.447Z,9.60
2022-12-16T03:40:17.586Z,9.43
2022-12-16T03:41:21.862Z,12.60
2022-12-16T03:42:24.452Z,8.65
2022-12-16T03:43:26.448Z,8.30
2022-12-16T03:44:28.000Z,8.80
2022-12-16T03:45:37.148Z,11.07
2022-12-16T03:46:38.824Z,9.75
2022-12-16T03:47:40.680Z,8.43
2022-12-16T03:48:52.647Z,10.50
2022-12-16T03:49:54.064Z,8.20
2022-12-16T03:50:55.665Z,9.10
2022-12-16T03:51:57.405Z,8.90
2022-12-16T03:52:59.136Z,8.50
2022-12-16T03:54:00.861Z,8.75
2022-12-16T03:55:02.706Z,8.40
2022-12-16T03:56:05.075Z,9.00
2022-12-16T03:57:11.740Z,8.97
2022-12-16T03:58:16.568Z,8.10
2022-12-16T03:59:18.175Z,9.80
2022-12-16T04:00:20.699Z,8.90
2022-12-16T04:01:23.714Z,9.82
2022-12-16T04:02:25.687Z,7.97
2022-12-16T04:03:27.392Z,7.90
2022-12-16T04:04:29.091Z,8.45
2022-12-16T04:05:30.552Z,8.82
2022-12-16T04:06:32.002Z,9.80
2022-12-16T04:07:33.565Z,9.38
2022-12-16T04:08:35.623Z,8.73
2022-12-16T04:09:37.000Z,7.63
2022-12-16T04:10:57.167Z,7.80
2022-12-16T04:12:17.265Z,8.20
2022-12-16T04:13:37.513Z,8.35
2022-12-16T04:14:57.647Z,9.43
2022-12-16T04:16:18.002Z,9.10
2022-12-16T04:17:37.942Z,9.70
2022-12-16T04:19:10.489Z,10.48
2022-12-16T04:20:36.421Z,9.90
2022-12-16T04:21:56.844Z,7.13
2022-12-16T04:23:17.195Z,8.40
2022-12-16T04:24:19.953Z,9.10
2022-12-16T04:25:26.326Z,8.18
2022-12-16T04:26:27.760Z,7.90
2022-12-16T04:27:29.453Z,8.63
2022-12-16T04:28:31.497Z,7.38
2022-12-16T04:29:33.662Z,8.25
2022-12-16T04:30:35.240Z,8.05
2022-12-16T04:31:36.700Z,8.02
2022-12-16T04:32:57.274Z,8.88
2022-12-16T04:34:17.688Z,8.45
2022-12-16T04:35:38.276Z,8.77
2022-12-16T04:36:58.472Z,9.37
2022-12-16T04:38:18.709Z,8.88
2022-12-16T04:39:55.692Z,7.35
2022-12-16T04:41:15.905Z,7.80
2022-12-16T04:42:35.707Z,8.53
2022-12-16T04:43:56.151Z,9.73
2022-12-16T04:45:16.455Z,10.85
2022-12-16T04:46:36.728Z,8.75
2022-12-16T04:47:57.668Z,9.38
2022-12-16T04:49:18.047Z,8.70
2022-12-16T04:50:38.330Z,9.57
2022-12-16T04:51:58.619Z,6.30
2022-12-16T04:53:18.807Z,8.33
2022-12-16T04:54:38.971Z,8.50
2022-12-16T04:56:03.820Z,8.52
2022-12-16T04:57:35.128Z,8.60
2022-12-16T04:58:55.406Z,8.32
2022-12-16T05:00:15.628Z,9.88
2022-12-16T05:01:36.249Z,9.73
2022-12-16T05:02:57.123Z,7.77
2022-12-16T05:04:17.283Z,9.00
2022-12-16T05:05:37.426Z,7.15
2022-12-16T05:06:57.653Z,8.02
2022-12-16T05:08:17.867Z,8.00
2022-12-16T05:09:38.161Z,9.27
2022-12-16T05:10:58.438Z,7.80
2022-12-16T05:12:18.968Z,7.72
2022-12-16T05:13:39.397Z,8.82
2022-12-16T05:15:00.003Z,10.75
2022-12-16T05:16:20.345Z,8.73
2022-12-16T05:17:41.105Z,9.52
2022-12-16T05:19:01.317Z,9.65
2022-12-16T05:20:22.619Z,9.63
2022-12-16T05:21:42.932Z,7.32
2022-12-16T05:23:03.180Z,9.57
2022-12-16T05:24:23.414Z,9.25
2022-12-16T05:25:43.615Z,9.18
2022-12-16T05:27:04.018Z,8.30
2022-12-16T05:28:24.304Z,7.80
2022-12-16T05:29:44.880Z,7.90
2022-12-16T05:31:05.133Z,8.15
2022-12-16T05:32:26.151Z,8.48
2022-12-16T05:33:46.179Z,8.10
2022-12-16T05:35:06.389Z,8.23
2022-12-16T05:36:27.465Z,9.35
2022-12-16T05:37:47.901Z,7.93
2022-12-16T05:39:08.066Z,8.63
2022-12-16T05:40:29.843Z,7.78
2022-12-16T05:41:49.966Z,9.07
2022-12-16T05:43:16.373Z,8.32
2022-12-16T05:44:36.954Z,7.88
2022-12-16T05:45:58.456Z,7.05
2022-12-16T05:47:18.540Z,7.47
2022-12-16T05:48:43.101Z,8.93
2022-12-16T05:50:06.166Z,7.68
2022-12-16T05:51:25.999Z,9.07
2022-12-16T05:52:46.211Z,10.30
2022-12-16T05:54:06.691Z,9.07
2022-12-16T05:55:32.163Z,8.40
2022-12-16T05:56:53.800Z,7.43
2022-12-16T05:58:13.992Z,9.88
2022-12-16T05:59:34.496Z,7.57
2022-12-16T06:00:55.303Z,8.38
2022-12-16T06:02:15.603Z,8.85
2022-12-16T06:03:36.737Z,9.07
2022-12-16T06:04:57.326Z,7.70
2022-12-16T06:06:17.602Z,9.10
2022-12-16T06:07:37.628Z,9.68
2022-12-16T06:08:57.931Z,8.68
2022-12-16T06:10:18.100Z,7.70
2022-12-16T06:11:38.656Z,8.20
2022-12-16T06:12:59.098Z,10.65
2022-12-16T06:14:19.341Z,9.13
2022-12-16T06:15:39.430Z,7.90
2022-12-16T06:16:59.585Z,8.98
2022-12-16T06:18:19.843Z,10.10
2022-12-16T06:19:39.937Z,8.63
2022-12-16T06:21:00.093Z,8.07
2022-12-16T06:22:20.331Z,10.27
2022-12-16T06:23:40.712Z,7.07
2022-12-16T06:25:01.209Z,9.07
2022-12-16T06:26:21.309Z,8.30
2022-12-16T06:27:41.547Z,7.80
2022-12-16T06:29:02.237Z,7.57
2022-12-16T06:30:22.602Z,7.55
2022-12-16T06:31:43.278Z,8.70
2022-12-16T06:33:03.407Z,7.47
2022-12-16T06:34:24.187Z,7.78
2022-12-16T06:35:44.512Z,8.45
2022-12-16T06:37:04.804Z,7.50
2022-12-16T06:38:25.091Z,8.95
2022-12-16T06:39:48.725Z,8.10
2022-12-16T06:41:13.002Z,8.43
2022-12-16T06:42:33.134Z,9.45
2022-12-16T06:43:53.557Z,7.82
2022-12-16T06:45:13.778Z,8.77
2022-12-16T06:46:34.114Z,8.27
2022-12-16T06:47:54.149Z,8.00
2022-12-16T06:49:14.130Z,8.93
2022-12-16T06:50:35.191Z,8.77
2022-12-16T06:51:55.342Z,8.70
2022-12-16T06:53:15.689Z,9.63
2022-12-16T06:54:36.233Z,8.18
2022-12-16T06:55:56.656Z,10.23
2022-12-16T06:57:16.764Z,10.90
2022-12-16T06:58:37.369Z,8.55
2022-12-16T06:59:57.497Z,9.18
2022-12-16T07:01:17.720Z,8.77
2022-12-16T07:02:38.101Z,7.80
2022-12-16T07:03:58.589Z,8.45
2022-12-16T07:05:18.676Z,9.30
2022-12-16T07:06:38.901Z,7.35
2022-12-16T07:08:04.904Z,7.43
2022-12-16T07:09:25.218Z,9.25
2022-12-16T07:10:45.420Z,9.10
2022-12-16T07:12:05.396Z,7.47
2022-12-16T07:13:25.488Z,8.32
2022-12-16T07:14:45.814Z,8.68
2022-12-16T07:16:06.200Z,7.78
2022-12-16T07:17:26.221Z,9.15
2022-12-16T07:18:46.255Z,7.32
2022-12-16T07:20:06.963Z,7.50
2022-12-16T07:21:26.800Z,7.68
2022-12-16T07:22:46.740Z,7.35
2022-12-16T07:24:07.144Z,8.18
2022-12-16T07:25:27.306Z,7.03
2022-12-16T07:26:47.770Z,7.40
2022-12-16T07:28:13.707Z,7.00
2022-12-16T07:29:35.415Z,5.88
2022-12-16T07:30:55.450Z,7.70
2022-12-16T07:32:15.722Z,8.32
2022-12-16T07:33:36.247Z,9.73
2022-12-16T07:34:57.361Z,7.63
2022-12-16T07:36:18.037Z,7.63
2022-12-16T07:37:38.689Z,8.32
2022-12-16T07:38:59.030Z,7.95
2022-12-16T07:40:19.504Z,9.25
2022-12-16T07:41:39.706Z,6.97
2022-12-16T07:43:01.060Z,7.80
2022-12-16T07:44:21.141Z,7.72
2022-12-16T07:45:45.131Z,7.63
2022-12-16T07:47:05.504Z,8.23
2022-12-16T07:48:26.832Z,7.65
2022-12-16T07:49:47.028Z,8.35
2022-12-16T07:51:07.547Z,7.70
2022-12-16T07:52:28.811Z,8.18
2022-12-16T07:53:49.263Z,7.00
2022-12-16T07:55:09.160Z,6.95
2022-12-16T07:56:29.673Z,8.02
2022-12-16T07:57:49.987Z,7.07
2022-12-16T07:59:10.832Z,6.55
2022-12-16T08:00:31.425Z,9.13
2022-12-16T08:01:51.609Z,6.90
2022-12-16T08:03:14.758Z,6.63
2022-12-16T08:04:34.993Z,6.90
2022-12-16T08:05:55.337Z,7.53
2022-12-16T08:07:15.873Z,6.88
2022-12-16T08:08:36.157Z,7.70
2022-12-16T08:09:56.258Z,7.68
2022-12-16T08:11:16.601Z,9.30
2022-12-16T08:12:36.988Z,8.13
2022-12-16T08:13:57.790Z,8.20
2022-12-16T08:15:18.340Z,8.43
2022-12-16T08:16:38.815Z,6.80
2022-12-16T08:18:06.795Z,6.63
2022-12-16T08:19:27.251Z,8.23
2022-12-16T08:20:47.303Z,7.63
2022-12-16T08:22:07.471Z,9.10
2022-12-16T08:23:27.688Z,7.55
2022-12-16T08:24:53.166Z,10.57
2022-12-16T08:26:13.691Z,6.95
2022-12-16T08:27:33.871Z,8.38
2022-12-16T08:28:54.575Z,9.68
2022-12-16T08:30:15.032Z,8.13
2022-12-16T08:31:35.044Z,8.88
2022-12-16T08:32:59.014Z,8.20
2022-12-16T08:34:22.087Z,7.78
2022-12-16T08:35:42.373Z,7.72
2022-12-16T08:37:02.580Z,7.70
2022-12-16T08:38:23.189Z,9.90
2022-12-16T08:39:43.623Z,8.65
2022-12-16T08:41:04.911Z,7.30
2022-12-16T08:42:25.901Z,7.38
2022-12-16T08:43:50.614Z,8.07
2022-12-16T08:45:12.145Z,9.00
2022-12-16T08:46:32.597Z,7.78
2022-12-16T08:47:53.090Z,8.82
2022-12-16T08:49:13.433Z,7.80
2022-12-16T08:50:33.685Z,7.88
2022-12-16T08:51:53.848Z,9.38
2022-12-16T08:53:14.829Z,7.23
2022-12-16T08:54:35.053Z,8.93
2022-12-16T08:55:55.845Z,7.70
2022-12-16T08:57:16.811Z,8.23
2022-12-16T08:58:38.024Z,9.27
2022-12-16T08:59:58.266Z,9.17
2022-12-16T09:01:18.352Z,8.02
2022-12-16T09:02:38.900Z,7.55
2022-12-16T09:03:59.776Z,8.50
2022-12-16T09:05:20.114Z,7.20
2022-12-16T09:06:41.222Z,9.07
2022-12-16T09:08:01.517Z,8.27
2022-12-16T09:09:21.771Z,8.07
2022-12-16T09:10:42.141Z,7.88
2022-12-16T09:12:02.456Z,7.85
2022-12-16T09:13:33.143Z,7.35
2022-12-16T09:14:53.564Z,9.77
2022-12-16T09:16:19.458Z,10.02
2022-12-16T09:17:47.466Z,6.50
2022-12-16T09:19:07.867Z,6.68
2022-12-16T09:20:29.156Z,7.20
2022-12-16T09:21:51.298Z,7.43
2022-12-16T09:23:12.788Z,7.13
2022-12-16T09:24:32.958Z,9.55
2022-12-16T09:25:53.116Z,7.82
2022-12-16T09:27:16.171Z,7.55
2022-12-16T09:28:36.162Z,9.32
2022-12-16T09:29:56.534Z,9.07
2022-12-16T09:31:17.197Z,9.60
2022-12-16T09:32:48.263Z,7.93
2022-12-16T09:34:08.501Z,6.93
2022-12-16T09:35:29.311Z,7.43
2022-12-16T09:36:49.624Z,7.18
2022-12-16T09:38:11.587Z,7.90
2022-12-16T09:39:31.786Z,8.45
2022-12-16T09:40:51.939Z,7.40
2022-12-16T09:42:45.170Z,7.75
2022-12-16T09:44:24.065Z,7.57
2022-12-16T09:46:16.215Z,8.70
2022-12-16T09:48:00.037Z,8.05
2022-12-16T09:49:58.524Z,6.78
2022-12-16T09:51:23.713Z,6.85
2022-12-16T09:52:44.490Z,6.95
2022-12-16T09:54:06.101Z,8.38
2022-12-16T09:55:46.992Z,8.48
2022-12-16T09:57:08.176Z,6.93
2022-12-16T09:58:31.349Z,9.05
2022-12-16T09:59:56.252Z,7.72
2022-12-16T10:01:17.482Z,7.40
2022-12-16T10:02:38.926Z,7.82
2022-12-16T10:03:59.976Z,7.30
2022-12-16T10:05:20.289Z,7.40
2022-12-16T10:07:05.584Z,7.07
2022-12-16T10:08:51.721Z,7.82
2022-12-16T10:11:05.323Z,7.18
2022-12-16T10:12:44.441Z,5.80
2022-12-16T10:14:19.481Z,7.72
2022-12-16T10:16:11.230Z,5.75
2022-12-16T10:17:36.924Z,6.40
2022-12-16T10:19:35.534Z,6.88
2022-12-16T10:21:05.488Z,5.88
2022-12-16T10:22:34.482Z,5.03
2022-12-16T10:24:29.886Z,6.47
2022-12-16T10:26:11.899Z,5.47
2022-12-16T10:27:34.946Z,5.95
2022-12-16T10:29:00.748Z,6.32
2022-12-16T10:30:22.323Z,6.63
2022-12-16T10:31:44.323Z,5.82
2022-12-16T10:33:09.061Z,7.32
2022-12-16T10:34:38.079Z,7.75
2022-12-16T10:36:06.391Z,6.55
2022-12-16T10:37:36.851Z,5.97
2022-12-16T10:39:10.280Z,7.30
2022-12-16T10:40:36.067Z,6.70
2022-12-16T10:42:00.263Z,6.63
2022-12-16T10:43:25.583Z,7.03
2022-12-16T10:45:04.789Z,8.52
2022-12-16T10:46:31.156Z,6.95
2022-12-16T10:47:51.526Z,6.55
2022-12-16T10:49:11.893Z,7.43
2022-12-16T10:50:32.749Z,7.43
2022-12-16T10:51:52.816Z,7.90
2022-12-16T10:53:18.369Z,7.68
2022-12-16T10:54:50.367Z,5.40
2022-12-16T10:56:22.376Z,8.85
2022-12-16T10:58:10.297Z,7.00
2022-12-16T10:59:30.635Z,5.63
2022-12-16T11:01:08.225Z,6.30
2022-12-16T11:02:38.922Z,6.00
2022-12-16T11:03:59.944Z,6.10
2022-12-16T11:05:20.155Z,6.82
2022-12-16T11:06:46.165Z,7.38
2022-12-16T11:08:06.394Z,6.10
2022-12-16T11:09:47.032Z,8.35
2022-12-16T11:11:17.789Z,7.75
2022-12-16T11:12:49.567Z,6.20
2022-12-16T11:14:10.477Z,7.55
2022-12-16T11:16:01.800Z,6.78
2022-12-16T11:17:42.728Z,6.57
2022-12-16T11:19:09.066Z,7.50
2022-12-16T11:20:42.631Z,6.63
2022-12-16T11:22:03.092Z,6.15
2022-12-16T11:23:33.813Z,8.80
2022-12-16T11:24:54.293Z,5.75
2022-12-16T11:26:41.134Z,7.55
2022-12-16T11:28:01.784Z,6.03
2022-12-16T11:29:33.819Z,7.10
2022-12-16T11:30:54.544Z,7.50
2022-12-16T11:32:24.205Z,7.00
2022-12-16T11:33:47.295Z,7.43
2022-12-16T11:35:16.835Z,5.38
2022-12-16T11:36:41.093Z,6.95
2022-12-16T11:38:02.721Z,8.25
2022-12-16T11:39:24.425Z,7.30
2022-12-16T11:40:44.999Z,7.80
2022-12-16T11:42:08.836Z,9.32
2022-12-16T11:43:33.026Z,5.18
2022-12-16T11:45:09.165Z,7.10
2022-12-16T11:46:33.150Z,7.57
2022-12-16T11:47:53.392Z,5.53
2022-12-16T11:49:24.745Z,7.57
2022-12-16T11:50:48.771Z,8.00
2022-12-16T11:52:37.685Z,6.45
2022-12-16T11:54:08.345Z,6.78
2022-12-16T11:57:15.788Z,8.10
2022-12-16T11:59:04.516Z,7.28
2022-12-16T12:00:25.069Z,5.70
2022-12-16T12:02:13.839Z,6.25
2022-12-16T12:03:41.818Z,6.38
2022-12-16T12:05:02.253Z,6.80
2022-12-16T12:06:37.662Z,6.55
2022-12-16T12:08:10.719Z,7.05
2022-12-16T12:09:41.008Z,9.27
2022-12-16T12:11:31.284Z,6.25
2022-12-16T12:12:54.792Z,8.48
2022-12-16T12:14:18.259Z,6.95
2022-12-16T12:15:51.743Z,6.65
2022-12-16T12:17:31.438Z,7.32
2022-12-16T12:19:29.403Z,5.90
2022-12-16T12:20:58.992Z,6.30
2022-12-16T12:22:30.158Z,6.07
2022-12-16T12:23:53.540Z,5.82
2022-12-16T12:25:29.187Z,6.25
2022-12-16T12:26:56.765Z,8.05
2022-12-16T12:28:41.206Z,7.20
2022-12-16T12:30:44.542Z,7.28
2022-12-16T12:32:37.519Z,7.78
2022-12-16T12:34:36.844Z,7.45
2022-12-16T12:36:13.724Z,7.72
2022-12-16T12:37:45.584Z,6.40
2022-12-16T12:39:31.570Z,6.90
2022-12-16T12:41:18.088Z,7.57
2022-12-16T12:42:59.683Z,6.93
2022-12-16T12:44:24.773Z,7.28
2022-12-16T12:46:09.629Z,6.25
2022-12-16T12:47:31.629Z,5.82
2022-12-16T12:49:02.537Z,7.30
2022-12-16T12:50:34.059Z,7.10
2022-12-16T12:52:00.212Z,8.70
2022-12-16T12:53:37.927Z,7.03
2022-12-16T12:55:12.167Z,6.97
2022-12-16T12:56:50.949Z,7.28
2022-12-16T12:58:13.749Z,6.45
2022-12-16T12:59:42.724Z,6.78
2022-12-16T13:01:08.913Z,7.40
2022-12-16T13:02:59.724Z,6.78
2022-12-16T13:04:31.709Z,7.78
2022-12-16T13:05:55.689Z,7.00
2022-12-16T13:07:18.533Z,8.52
2022-12-16T13:08:56.476Z,7.18
2022-12-16T13:10:38.476Z,7.75
2022-12-16T13:12:27.781Z,5.30
2022-12-16T13:13:48.920Z,6.72
2022-12-16T13:15:08.919Z,8.35
2022-12-16T13:16:49.705Z,8.13
2022-12-16T13:18:22.028Z,6.82
2022-12-16T13:19:47.961Z,6.68
2022-12-16T13:21:08.798Z,8.18
2022-12-16T13:22:46.730Z,7.13
2022-12-16T13:24:07.022Z,7.25
2022-12-16T13:25:48.800Z,6.57
2022-12-16T13:27:20.242Z,6.32
2022-12-16T13:28:49.714Z,8.50
2022-12-16T13:30:35.733Z,8.23
2022-12-16T13:32:27.973Z,7.28
2022-12-16T13:33:49.573Z,8.07
2022-12-16T13:35:39.630Z,7.22
2022-12-16T13:37:02.244Z,7.20
2022-12-16T13:38:24.419Z,7.72
2022-12-16T13:39:49.300Z,6.35
2022-12-16T13:41:16.848Z,6.68
2022-12-16T13:42:58.379Z,8.25
2022-12-16T13:44:19.156Z,10.20
2022-12-16T13:45:56.343Z,6.47
2022-12-16T13:47:16.941Z,7.38
2022-12-16T13:48:58.951Z,7.95
2022-12-16T13:50:54.476Z,7.13
2022-12-16T13:52:17.904Z,7.90
2022-12-16T13:53:39.732Z,7.57
2022-12-16T13:55:11.817Z,7.78
2022-12-16T13:56:35.413Z,7.20
2022-12-16T13:58:00.974Z,8.38
2022-12-16T13:59:30.137Z,7.63
2022-12-16T14:00:55.694Z,6.78
2022-12-16T14:02:21.437Z,7.85
2022-12-16T14:03:43.769Z,9.52
2022-12-16T14:05:07.129Z,7.63
2022-12-16T14:06:35.854Z,7.00
2022-12-16T14:08:00.182Z,6.90
2022-12-16T14:09:22.906Z,7.18
2022-12-16T14:10:50.256Z,8.20
2022-12-16T14:12:39.188Z,8.40
2022-12-16T14:14:16.818Z,7.13
2022-12-16T14:16:06.372Z,8.70
2022-12-16T14:17:37.131Z,8.23
2022-12-16T14:19:01.265Z,7.35
2022-12-16T14:20:36.030Z,7.93
2022-12-16T14:22:10.917Z,9.75
2022-12-16T14:23:55.800Z,5.35
2022-12-16T14:25:14.062Z,8.18
2022-12-16T14:26:34.743Z,8.20
2022-12-16T14:28:02.298Z,7.05
2022-12-16T14:29:22.336Z,9.63
2022-12-16T14:30:44.561Z,7.30
2022-12-16T14:32:05.527Z,5.78
2022-12-16T14:33:40.683Z,6.97
2022-12-16T14:35:00.922Z,7.70
2022-12-16T14:36:21.088Z,7.07
2022-12-16T14:37:57.233Z,7.15
2022-12-16T14:39:17.693Z,6.22
2022-12-16T14:40:40.899Z,5.85
2022-12-16T14:42:00.986Z,6.70
2022-12-16T14:43:21.347Z,6.18
2022-12-16T14:44:43.529Z,5.70
2022-12-16T14:46:08.408Z,5.90
2022-12-16T14:47:37.367Z,5.93
2022-12-16T14:48:58.103Z,6.57
2022-12-16T14:50:18.241Z,7.40
2022-12-16T14:51:49.899Z,6.80
2022-12-16T14:53:35.819Z,6.90
2022-12-16T14:55:06.670Z,7.40
2022-12-16T14:56:40.626Z,8.68
2022-12-16T14:58:00.882Z,8.07
2022-12-16T14:59:41.384Z,8.90
2022-12-16T15:01:05.262Z,8.25
2022-12-16T15:02:48.404Z,5.88
2022-12-16T15:04:09.344Z,7.13
2022-12-16T15:05:30.046Z,9.90
2022-12-16T15:06:57.491Z,7.55
2022-12-16T15:08:18.873Z,7.88
2022-12-16T15:09:50.686Z,8.10
2022-12-16T15:11:12.440Z,8.25
2022-12-16T15:12:37.353Z,7.78
2022-12-16T15:14:04.039Z,7.85
2022-12-16T15:15:28.804Z,8.48
2022-12-16T15:16:55.274Z,7.50
2022-12-16T15:18:19.259Z,8.07
2022-12-16T15:19:41.441Z,7.30
2022-12-16T15:21:12.403Z,8.27
2022-12-16T15:22:36.634Z,8.55
2022-12-16T15:24:02.792Z,7.07
2022-12-16T15:25:24.079Z,7.55
2022-12-16T15:26:46.490Z,8.13
2022-12-16T15:28:14.535Z,6.80
2022-12-16T15:29:52.227Z,7.80
2022-12-16T15:31:12.865Z,5.63
2022-12-16T15:32:44.835Z,7.72
2022-12-16T15:34:05.112Z,6.75
2022-12-16T15:35:25.187Z,6.38
2022-12-16T15:36:48.879Z,7.65
2022-12-16T15:38:08.942Z,6.55
2022-12-16T15:39:42.485Z,6.32
2022-12-16T15:41:09.695Z,5.07
2022-12-16T15:42:40.736Z,6.30
2022-12-16T15:44:03.417Z,5.13
2022-12-16T15:45:24.131Z,6.63
2022-12-16T15:46:46.857Z,6.63
2022-12-16T15:48:09.669Z,6.47
2022-12-16T15:49:49.357Z,7.05
2022-12-16T15:51:12.125Z,6.30
2022-12-16T15:52:57.720Z,5.40
2022-12-16T15:54:21.930Z,5.47
2022-12-16T15:56:04.583Z,6.20
2022-12-16T15:57:46.954Z,5.53
2022-12-16T15:59:07.304Z,5.32
2022-12-16T16:00:47.438Z,5.95
2022-12-16T16:02:07.552Z,6.00
2022-12-16T16:03:57.549Z,5.88
2022-12-16T16:05:17.556Z,5.68
2022-12-16T16:06:40.841Z,6.25
2022-12-16T16:08:04.168Z,5.43
2022-12-16T16:09:42.985Z,7.13
2022-12-16T16:11:04.382Z,6.10
2022-12-16T16:12:24.879Z,5.60
2022-12-16T16:13:45.043Z,7.43
2022-12-16T16:15:05.356Z,7.00
2022-12-16T16:16:29.438Z,7.07
2022-12-16T16:17:49.970Z,5.32
2022-12-16T16:19:10.287Z,7.78
2022-12-16T16:20:36.155Z,5.55
2022-12-16T16:21:56.482Z,5.97
2022-12-16T16:23:17.655Z,5.70
2022-12-16T16:24:37.924Z,6.85
2022-12-16T16:26:02.196Z,5.10
2022-12-16T16:27:29.932Z,6.28
2022-12-16T16:28:50.700Z,6.03
2022-12-16T16:30:10.879Z,5.20
2022-12-16T16:31:31.070Z,5.28
2022-12-16T16:32:51.590Z,6.45
2022-12-16T16:34:12.049Z,6.40
2022-12-16T16:35:32.375Z,6.05
2022-12-16T16:36:52.524Z,5.40
2022-12-16T16:38:16.780Z,5.72
2022-12-16T16:39:38.601Z,6.30
2022-12-16T16:41:02.620Z,5.13
2022-12-16T16:42:22.915Z,6.85
2022-12-16T16:43:44.079Z,6.82
2022-12-16T16:45:03.890Z,6.40
2022-12-16T16:46:59.616Z,6.65
2022-12-16T16:48:34.873Z,5.97
2022-12-16T16:49:59.895Z,6.00
2022-12-16T16:51:21.931Z,6.28
2022-12-16T16:52:44.418Z,6.07
2022-12-16T16:54:04.522Z,6.72
2022-12-16T16:55:25.759Z,4.75
2022-12-16T16:56:57.942Z,5.50
2022-12-16T16:58:18.464Z,4.93
2022-12-16T16:59:41.531Z,5.18
2022-12-16T17:01:01.785Z,6.90
2022-12-16T17:02:22.152Z,6.05
2022-12-16T17:03:43.190Z,5.82
2022-12-16T17:05:04.184Z,6.18
2022-12-16T17:06:24.119Z,6.97
2022-12-16T17:07:47.024Z,4.63
2022-12-16T17:09:10.841Z,5.82
2022-12-16T17:10:31.381Z,5.38
2022-12-16T17:11:52.005Z,6.35
2022-12-16T17:13:12.128Z,5.20
2022-12-16T17:14:34.849Z,5.35
2022-12-16T17:15:55.782Z,5.25
2022-12-16T17:17:16.443Z,6.60
2022-12-16T17:18:39.999Z,6.15
2022-12-16T17:20:04.031Z,6.78
2022-12-16T17:21:24.354Z,5.88
2022-12-16T17:22:44.406Z,4.53
2022-12-16T17:24:04.599Z,5.47
2022-12-16T17:25:24.884Z,5.82
2022-12-16T17:26:45.509Z,4.57
2022-12-16T17:28:06.025Z,7.15
2022-12-16T17:29:33.304Z,5.78
2022-12-16T17:30:53.723Z,6.55
2022-12-16T17:32:13.826Z,6.75
2022-12-16T17:33:35.814Z,6.60
2022-12-16T17:34:56.101Z,7.07
2022-12-16T17:36:16.238Z,6.20
2022-12-16T17:37:36.298Z,6.90
2022-12-16T17:39:01.948Z,6.03